createdAt,value
2016-01-16T12:13:41.144Z,1005.28
2016-01-16T12:14:41.131Z,1005.25
2016-01-16T12:15:41.166Z,1005.24
2016-01-16T12:16:41.199Z,1005.27
2016-01-16T12:17:41.233Z,1005.28
2016-01-16T12:18:41.282Z,1005.34
2016-01-16T12:19:41.332Z,1005.4
2016-01-16T12:20:41.366Z,1005.37
2016-01-16T12:21:41.401Z,1005.4
2016-01-16T12:22:41.449Z,1005.44
2016-01-16T12:23:41.499Z,1005.33
2016-01-16T12:24:41.534Z,1005.42
2016-01-16T12:25:41.568Z,1005.48
2016-01-16T12:26:41.617Z,1005.48
2016-01-16T12:27:41.651Z,1005.46
2016-01-16T12:28:41.701Z,1005.47
2016-01-16T12:29:41.735Z,1005.4
2016-01-16T12:30:41.800Z,1005.49
2016-01-16T12:31:41.833Z,1005.45
2016-01-16T12:32:41.868Z,1005.51
2016-01-16T12:33:41.918Z,1005.5
2016-01-16T12:34:41.967Z,1005.49
2016-01-16T12:35:42.126Z,1005.56
2016-01-16T12:36:42.050Z,1005.57
2016-01-16T12:37:42.084Z,1005.59
2016-01-16T12:38:42.134Z,1005.56
2016-01-16T12:39:42.199Z,1005.52
2016-01-16T12:40:42.217Z,1005.59
2016-01-16T12:41:42.267Z,1005.56
2016-01-16T12:42:42.300Z,1005.59
2016-01-16T12:43:42.350Z,1005.62
2016-01-16T12:44:42.384Z,1005.6
2016-01-16T12:45:42.433Z,1005.62
2016-01-16T12:46:42.499Z,1005.61
2016-01-16T12:47:42.517Z,1005.68
2016-01-16T12:48:42.552Z,1005.49
2016-01-16T12:49:42.601Z,1005.7
2016-01-16T12:50:42.650Z,1005.68
2016-01-16T12:51:42.685Z,1005.76
2016-01-16T12:52:42.719Z,1005.8
2016-01-16T12:53:42.768Z,1005.79
2016-01-16T12:54:42.818Z,1005.73
2016-01-16T12:55:42.852Z,1005.84
2016-01-16T12:56:42.901Z,1005.85
2016-01-16T12:57:42.951Z,1005.84
2016-01-16T12:58:42.985Z,1005.88
2016-01-16T12:59:43.034Z,1005.87
2016-01-16T13:00:43.068Z,1005.92
2016-01-16T13:01:43.134Z,1005.94
2016-01-16T13:02:43.165Z,1005.97
2016-01-16T13:03:43.198Z,1005.94
2016-01-16T13:04:43.232Z,1005.96
2016-01-16T13:05:43.282Z,1005.92
2016-01-16T13:06:43.331Z,1005.97
2016-01-16T13:07:43.381Z,1005.95
2016-01-16T13:08:43.431Z,1005.98
2016-01-16T13:09:43.481Z,1006
2016-01-16T13:10:43.498Z,1006
2016-01-16T13:11:43.533Z,1006.07
2016-01-16T13:12:43.583Z,1006.12
2016-01-16T13:13:43.632Z,1006.14
2016-01-16T13:14:43.666Z,1006.16
2016-01-16T13:15:43.716Z,1006.14
2016-01-16T13:16:43.750Z,1006.17
2016-01-16T13:17:43.814Z,1006.23
2016-01-16T13:18:43.833Z,1006.28
2016-01-16T13:19:43.883Z,1006.32
2016-01-16T13:20:43.917Z,1006.3
2016-01-16T13:21:43.967Z,1006.42
2016-01-16T13:22:43.999Z,1006.44
2016-01-16T13:23:44.050Z,1006.48
2016-01-16T13:24:44.083Z,1006.45
2016-01-16T13:25:44.133Z,1006.45
2016-01-16T13:26:44.166Z,1006.52
2016-01-16T13:27:44.216Z,1006.54
2016-01-16T13:28:44.266Z,1006.57
2016-01-16T13:29:44.316Z,1006.51
2016-01-16T13:30:44.349Z,1006.57
2016-01-16T13:31:44.399Z,1006.58
2016-01-16T13:32:44.433Z,1006.53
2016-01-16T13:33:44.468Z,1006.58
2016-01-16T13:34:44.532Z,1006.6
2016-01-16T13:35:44.566Z,1006.6
2016-01-16T13:36:44.631Z,1006.65
2016-01-16T13:37:44.650Z,1006.67
2016-01-16T13:38:44.699Z,1006.7
2016-01-16T13:39:44.734Z,1006.73
2016-01-16T13:40:44.798Z,1006.69
2016-01-16T13:41:44.817Z,1006.73
2016-01-16T13:42:44.867Z,1006.79
2016-01-16T13:43:44.916Z,1006.81
2016-01-16T13:44:44.950Z,1006.76
2016-01-16T13:45:44.984Z,1006.86
2016-01-16T13:46:45.034Z,1006.85
2016-01-16T13:47:45.067Z,1006.83
2016-01-16T13:48:45.117Z,1006.79
2016-01-16T13:49:45.182Z,1006.87
2016-01-16T13:50:45.216Z,1006.88
2016-01-16T13:51:45.234Z,1006.9
2016-01-16T13:52:45.283Z,1006.94
2016-01-16T13:53:45.333Z,1006.96
2016-01-16T13:54:45.367Z,1006.98
2016-01-16T13:55:45.416Z,1007.04
2016-01-16T13:56:45.451Z,1006.99
2016-01-16T13:57:45.516Z,1007
2016-01-16T13:58:45.549Z,1007.04
2016-01-16T13:59:45.584Z,1007.03
2016-01-16T14:00:45.633Z,1007.01
2016-01-16T14:01:45.668Z,1007.06
2016-01-16T14:02:45.717Z,1007.08
2016-01-16T14:03:45.766Z,1007.11
2016-01-16T14:04:45.801Z,1007.13
2016-01-16T14:05:45.851Z,1007.16
2016-01-16T14:06:45.884Z,1007.13
2016-01-16T14:07:45.934Z,1007.22
2016-01-16T14:08:45.968Z,1007.2
2016-01-16T14:09:46.033Z,1007.2
2016-01-16T14:10:46.067Z,1007.23
2016-01-16T14:11:46.101Z,1007.21
2016-01-16T14:12:46.151Z,1007.26
2016-01-16T14:13:46.185Z,1007.24
2016-01-16T14:14:46.234Z,1007.26
2016-01-16T14:15:46.268Z,1007.3
2016-01-16T14:16:46.318Z,1007.28
2016-01-16T14:17:46.367Z,1007.29
2016-01-16T14:18:46.416Z,1007.31
2016-01-16T14:19:46.451Z,1007.36
2016-01-16T14:20:46.484Z,1007.37
2016-01-16T14:21:46.533Z,1007.37
2016-01-16T14:22:46.584Z,1007.35
2016-01-16T14:23:46.617Z,1007.33
2016-01-16T14:24:46.652Z,1007.36
2016-01-16T14:25:46.700Z,1007.4
2016-01-16T14:26:46.750Z,1007.4
2016-01-16T14:27:46.800Z,1007.41
2016-01-16T14:28:46.833Z,1007.41
2016-01-16T14:29:46.868Z,1007.46
2016-01-16T14:30:46.918Z,1007.44
2016-01-16T14:31:46.952Z,1007.44
2016-01-16T14:32:47.001Z,1007.48
2016-01-16T14:33:47.066Z,1007.53
2016-01-16T14:34:47.085Z,1007.46
2016-01-16T14:35:47.134Z,1007.51
2016-01-16T14:36:47.168Z,1007.59
2016-01-16T14:37:47.218Z,1007.59
2016-01-16T14:38:47.268Z,1007.63
2016-01-16T14:39:47.301Z,1007.59
2016-01-16T14:40:47.334Z,1007.6
2016-01-16T14:41:47.385Z,1007.64
2016-01-16T14:42:47.434Z,1007.61
2016-01-16T14:43:47.467Z,1007.69
2016-01-16T14:44:47.518Z,1007.72
2016-01-16T14:45:47.552Z,1007.75
2016-01-16T14:46:47.601Z,1007.69
2016-01-16T14:47:47.634Z,1007.74
2016-01-16T14:48:47.684Z,1007.81
2016-01-16T14:49:47.734Z,1007.73
2016-01-16T14:50:47.767Z,1007.77
2016-01-16T14:51:47.802Z,1007.8
2016-01-16T14:52:47.852Z,1007.79
2016-01-16T14:53:47.900Z,1007.77
2016-01-16T14:54:47.935Z,1007.81
2016-01-16T14:55:47.985Z,1007.87
2016-01-16T14:56:48.019Z,1007.78
2016-01-16T14:57:48.069Z,1007.81
2016-01-16T14:58:48.164Z,1007.85
2016-01-16T14:59:48.152Z,1007.94
2016-01-16T15:00:48.186Z,1007.86
2016-01-16T15:01:48.236Z,1007.86
2016-01-16T15:02:48.285Z,1007.91
2016-01-16T15:03:48.319Z,1007.88
2016-01-16T15:04:48.369Z,1007.93
2016-01-16T15:05:48.402Z,1007.97
2016-01-16T15:06:48.435Z,1007.94
2016-01-16T15:07:48.485Z,1008.06
2016-01-16T15:08:48.535Z,1008.09
2016-01-16T15:09:48.569Z,1008.09
2016-01-16T15:10:48.618Z,1008.01
2016-01-16T15:11:48.653Z,1008.05
2016-01-16T15:12:48.702Z,1008.03
2016-01-16T15:13:48.768Z,1008.01
2016-01-16T15:14:48.786Z,1008.09
2016-01-16T15:15:48.851Z,1008.07
2016-01-16T15:16:48.870Z,1008.14
2016-01-16T15:17:48.919Z,1008.12
2016-01-16T15:18:48.953Z,1008.21
2016-01-16T15:19:49.003Z,1008.2
2016-01-16T15:20:49.037Z,1008.2
2016-01-16T15:21:49.086Z,1008.2
2016-01-16T15:22:49.120Z,1008.22
2016-01-16T15:23:49.170Z,1008.25
2016-01-16T15:24:49.219Z,1008.17
2016-01-16T15:25:49.269Z,1008.23
2016-01-16T15:26:49.303Z,1008.23
2016-01-16T15:27:49.367Z,1008.23
2016-01-16T15:28:49.386Z,1008.31
2016-01-16T15:29:49.435Z,1008.31
2016-01-16T15:30:49.469Z,1008.33
2016-01-16T15:31:49.519Z,1008.31
2016-01-16T15:32:49.585Z,1008.33
2016-01-16T15:33:49.602Z,1008.4
2016-01-16T15:34:49.636Z,1008.33
2016-01-16T15:35:49.685Z,1008.35
2016-01-16T15:36:49.720Z,1008.36
2016-01-16T15:37:49.769Z,1008.38
2016-01-16T15:38:49.819Z,1008.43
2016-01-16T15:39:49.946Z,1008.43
2016-01-16T15:40:49.899Z,1008.42
2016-01-16T15:41:49.934Z,1008.43
2016-01-16T15:42:49.968Z,1008.45
2016-01-16T15:43:50.033Z,1008.46
2016-01-16T15:44:50.068Z,1008.46
2016-01-16T15:45:50.117Z,1008.51
2016-01-16T15:46:50.151Z,1008.52
2016-01-16T15:47:50.200Z,1008.53
2016-01-16T15:48:50.265Z,1008.61
2016-01-16T15:49:50.284Z,1008.56
2016-01-16T15:50:50.318Z,1008.61
2016-01-16T15:51:50.351Z,1008.61
2016-01-16T15:52:50.401Z,1008.59
2016-01-16T15:53:50.466Z,1008.62
2016-01-16T15:54:50.484Z,1008.54
2016-01-16T15:55:50.534Z,1008.62
2016-01-16T15:56:50.583Z,1008.64
2016-01-16T15:57:50.649Z,1008.6
2016-01-16T15:58:50.698Z,1008.62
2016-01-16T15:59:50.700Z,1008.61
2016-01-16T16:00:50.767Z,1008.67
2016-01-16T16:01:50.800Z,1008.66
2016-01-16T16:02:50.834Z,1008.68
2016-01-16T16:03:50.916Z,1008.75
2016-01-16T16:04:50.918Z,1008.78
2016-01-16T16:05:50.967Z,1008.79
2016-01-16T16:06:51.001Z,1008.77
2016-01-16T16:07:51.036Z,1008.84
2016-01-16T16:08:51.100Z,1008.81
2016-01-16T16:09:51.135Z,1008.78
2016-01-16T16:10:51.168Z,1008.85
2016-01-16T16:11:51.202Z,1008.89
2016-01-16T16:12:51.282Z,1008.92
2016-01-16T16:13:51.285Z,1008.92
2016-01-16T16:14:51.351Z,1009
2016-01-16T16:15:51.416Z,1008.99
2016-01-16T16:16:51.418Z,1008.98
2016-01-16T16:17:51.468Z,1009.04
2016-01-16T16:18:51.596Z,1009.11
2016-01-16T16:19:51.551Z,1009.15
2016-01-16T16:20:51.587Z,1009.19
2016-01-16T16:21:51.651Z,1009.17
2016-01-16T16:22:51.685Z,1009.21
2016-01-16T16:23:51.829Z,1009.2
2016-01-16T16:24:51.768Z,1009.21
2016-01-16T16:25:51.803Z,1009.21
2016-01-16T16:26:51.854Z,1009.2
2016-01-16T16:27:51.887Z,1009.21
2016-01-16T16:28:51.920Z,1009.25
2016-01-16T16:29:51.971Z,1009.21
2016-01-16T16:30:52.035Z,1009.22
2016-01-16T16:31:52.085Z,1009.24
2016-01-16T16:32:52.104Z,1009.28
2016-01-16T16:33:52.138Z,1009.26
2016-01-16T16:34:52.203Z,1009.24
2016-01-16T16:35:52.221Z,1009.26
2016-01-16T16:36:52.301Z,1009.26
2016-01-16T16:37:52.305Z,1009.27
2016-01-16T16:38:52.354Z,1009.25
2016-01-16T16:39:52.404Z,1009.27
2016-01-16T16:40:52.469Z,1009.31
2016-01-16T16:41:52.472Z,1009.28
2016-01-16T16:42:52.567Z,1009.33
2016-01-16T16:43:52.571Z,1009.34
2016-01-16T16:44:52.620Z,1009.36
2016-01-16T16:45:52.655Z,1009.35
2016-01-16T16:46:52.767Z,1009.39
2016-01-16T16:47:52.739Z,1009.35
2016-01-16T16:48:52.834Z,1009.35
2016-01-16T16:49:52.900Z,1009.31
2016-01-16T16:50:52.903Z,1009.29
2016-01-16T16:51:52.936Z,1009.29
2016-01-16T16:52:52.956Z,1009.27
2016-01-16T16:53:53.005Z,1009.28
2016-01-16T16:54:53.055Z,1009.3
2016-01-16T16:55:53.073Z,1009.32
2016-01-16T16:56:53.123Z,1009.34
2016-01-16T16:57:53.156Z,1009.34
2016-01-16T16:58:53.205Z,1009.37
2016-01-16T16:59:53.240Z,1009.34
2016-01-16T17:00:53.290Z,1009.36
2016-01-16T17:01:53.339Z,1009.35
2016-01-16T17:02:53.376Z,1009.38
2016-01-16T17:03:53.426Z,1009.37
2016-01-16T17:04:53.460Z,1009.42
2016-01-16T17:05:53.510Z,1009.41
2016-01-16T17:06:53.544Z,1009.41
2016-01-16T17:07:53.609Z,1009.42
2016-01-16T17:08:53.628Z,1009.45
2016-01-16T17:09:53.678Z,1009.42
2016-01-16T17:10:53.711Z,1009.47
2016-01-16T17:11:53.761Z,1009.45
2016-01-16T17:12:53.795Z,1009.47
2016-01-16T17:13:53.844Z,1009.43
2016-01-16T17:14:53.878Z,1009.45
2016-01-16T17:15:53.928Z,1009.4
2016-01-16T17:16:53.961Z,1009.45
2016-01-16T17:17:54.011Z,1009.47
2016-01-16T17:18:54.060Z,1009.47
2016-01-16T17:19:54.094Z,1009.47
2016-01-16T17:20:54.145Z,1009.47
2016-01-16T17:21:54.177Z,1009.54
2016-01-16T17:22:54.227Z,1009.46
2016-01-16T17:23:54.261Z,1009.52
2016-01-16T17:24:54.311Z,1009.5
2016-01-16T17:25:54.345Z,1009.41
2016-01-16T17:26:54.394Z,1009.47
2016-01-16T17:27:54.444Z,1009.51
2016-01-16T17:28:54.479Z,1009.55
2016-01-16T17:29:54.513Z,1009.55
2016-01-16T17:30:54.562Z,1009.56
2016-01-16T17:31:54.612Z,1009.55
2016-01-16T17:32:54.692Z,1009.58
2016-01-16T17:33:54.695Z,1009.57
2016-01-16T17:34:54.745Z,1009.6
2016-01-16T17:35:54.779Z,1009.58
2016-01-16T17:36:54.829Z,1009.6
2016-01-16T17:37:54.878Z,1009.61
2016-01-16T17:38:54.895Z,1009.58
2016-01-16T17:39:54.946Z,1009.62
2016-01-16T17:40:54.995Z,1009.59
2016-01-16T17:41:55.028Z,1009.6
2016-01-16T17:42:55.126Z,1009.58
2016-01-16T17:43:55.128Z,1009.53
2016-01-16T17:44:55.256Z,1009.56
2016-01-16T17:45:55.209Z,1009.63
2016-01-16T17:46:55.242Z,1009.61
2016-01-16T17:47:55.292Z,1009.64
2016-01-16T17:48:55.342Z,1009.65
2016-01-16T17:49:55.375Z,1009.65
2016-01-16T17:50:55.503Z,1009.62
2016-01-16T17:51:55.475Z,1009.64
2016-01-16T17:52:55.525Z,1009.64
2016-01-16T17:53:55.574Z,1009.65
2016-01-16T17:54:55.718Z,1009.67
2016-01-16T17:55:55.627Z,1009.66
2016-01-16T17:56:55.691Z,1009.67
2016-01-16T17:57:55.725Z,1009.68
2016-01-16T17:58:55.791Z,1009.68
2016-01-16T17:59:55.794Z,1009.61
2016-01-16T18:00:55.843Z,1009.61
2016-01-16T18:01:55.877Z,1009.66
2016-01-16T18:02:55.927Z,1009.64
2016-01-16T18:03:56.039Z,1009.67
2016-01-16T18:04:56.026Z,1009.7
2016-01-16T18:05:56.091Z,1009.71
2016-01-16T18:06:56.093Z,1009.7
2016-01-16T18:07:56.144Z,1009.71
2016-01-16T18:08:56.177Z,1009.68
2016-01-16T18:09:56.227Z,1009.75
2016-01-16T18:10:56.260Z,1009.74
2016-01-16T18:11:56.311Z,1009.8
2016-01-16T18:12:56.345Z,1009.85
2016-01-16T18:13:56.394Z,1009.84
2016-01-16T18:14:56.428Z,1009.85
2016-01-16T18:15:56.478Z,1009.85
2016-01-16T18:16:56.511Z,1009.84
2016-01-16T18:17:56.562Z,1009.85
2016-01-16T18:18:56.611Z,1009.86
2016-01-16T18:19:56.644Z,1009.84
2016-01-16T18:20:56.678Z,1009.82
2016-01-16T18:21:56.728Z,1009.84
2016-01-16T18:22:56.778Z,1009.89
2016-01-16T18:23:56.811Z,1009.89
2016-01-16T18:24:56.861Z,1009.95
2016-01-16T18:25:56.895Z,1009.91
2016-01-16T18:26:56.945Z,1009.97
2016-01-16T18:27:56.995Z,1010.02
2016-01-16T18:28:57.028Z,1010.03
2016-01-16T18:29:57.077Z,1010.07
2016-01-16T18:30:57.112Z,1010.06
2016-01-16T18:31:57.161Z,1010
2016-01-16T18:32:57.211Z,1010.01
2016-01-16T18:33:57.245Z,1010.02
2016-01-16T18:34:57.294Z,1010.02
2016-01-16T18:35:57.328Z,1010
2016-01-16T18:36:57.378Z,1010.01
2016-01-16T18:37:57.412Z,1010.06
2016-01-16T18:38:57.460Z,1010.05
2016-01-16T18:39:57.496Z,1010.06
2016-01-16T18:40:57.545Z,1009.96
2016-01-16T18:41:57.579Z,1009.98
2016-01-16T18:42:57.629Z,1009.95
2016-01-16T18:43:57.662Z,1009.95
2016-01-16T18:44:57.712Z,1009.89
2016-01-16T18:45:57.745Z,1009.95
2016-01-16T18:46:57.795Z,1009.96
2016-01-16T18:47:57.845Z,1009.9
2016-01-16T18:48:57.894Z,1009.9
2016-01-16T18:49:57.929Z,1009.93
2016-01-16T18:50:57.978Z,1009.88
2016-01-16T18:51:58.012Z,1009.91
2016-01-16T18:52:58.062Z,1009.89
2016-01-16T18:53:58.096Z,1009.86
2016-01-16T18:54:58.129Z,1009.85
2016-01-16T18:55:58.195Z,1009.82
2016-01-16T18:56:58.229Z,1009.79
2016-01-16T18:57:58.263Z,1009.82
2016-01-16T18:58:58.313Z,1009.82
2016-01-16T18:59:58.348Z,1009.83
2016-01-16T19:00:58.396Z,1009.84
2016-01-16T19:01:58.431Z,1009.85
2016-01-16T19:02:58.481Z,1009.85
2016-01-16T19:03:58.529Z,1009.87
2016-01-16T19:04:58.579Z,1009.85
2016-01-16T19:06:58.647Z,1009.85
2016-01-16T19:07:58.697Z,1009.89
2016-01-16T19:08:58.731Z,1009.89
2016-01-16T19:09:58.781Z,1009.85
2016-01-16T19:10:58.814Z,1009.88
2016-01-16T19:11:58.864Z,1009.88
2016-01-16T19:12:58.913Z,1009.9
2016-01-16T19:13:58.947Z,1009.91
2016-01-16T19:14:58.997Z,1009.91
2016-01-16T19:15:59.031Z,1009.93
2016-01-16T19:16:59.080Z,1009.93
2016-01-16T19:17:59.130Z,1009.95
2016-01-16T19:18:59.163Z,1009.93
2016-01-16T19:19:59.214Z,1009.94
2016-01-16T19:20:59.247Z,1009.93
2016-01-16T19:21:59.297Z,1009.89
2016-01-16T19:22:59.331Z,1009.89
2016-01-16T19:23:59.381Z,1009.86
2016-01-16T19:24:59.416Z,1009.86
2016-01-16T19:25:59.464Z,1009.87
2016-01-16T19:26:59.513Z,1009.89
2016-01-16T19:27:59.549Z,1009.84
2016-01-16T19:28:59.613Z,1009.84
2016-01-16T19:29:59.647Z,1009.86
2016-01-16T19:30:59.682Z,1009.86
2016-01-16T19:31:59.716Z,1009.84
2016-01-16T19:32:59.765Z,1009.84
2016-01-16T19:33:59.815Z,1009.88
2016-01-16T19:34:59.849Z,1009.86
2016-01-16T19:35:59.898Z,1009.88
2016-01-16T19:36:59.932Z,1009.86
2016-01-16T19:37:59.982Z,1009.87
2016-01-16T19:39:00.016Z,1009.84
2016-01-16T19:40:00.065Z,1009.85
2016-01-16T19:41:00.115Z,1009.81
2016-01-16T19:42:00.149Z,1009.79
2016-01-16T19:43:00.198Z,1009.77
2016-01-16T19:44:00.231Z,1009.76
2016-01-16T19:45:00.282Z,1009.78
2016-01-16T19:46:00.315Z,1009.75
2016-01-16T19:47:00.364Z,1009.77
2016-01-16T19:48:00.414Z,1009.82
2016-01-16T19:49:00.448Z,1009.85
2016-01-16T19:50:00.497Z,1009.8
2016-01-16T19:51:00.531Z,1009.85
2016-01-16T19:52:00.581Z,1009.84
2016-01-16T19:53:00.616Z,1009.87
2016-01-16T19:54:00.664Z,1009.82
2016-01-16T19:55:00.730Z,1009.81
2016-01-16T19:56:00.749Z,1009.83
2016-01-16T19:57:00.798Z,1009.79
2016-01-16T19:58:00.847Z,1009.78
2016-01-16T19:59:00.882Z,1009.78
2016-01-16T20:00:00.916Z,1009.79
2016-01-16T20:01:00.966Z,1009.79
2016-01-16T20:02:01.015Z,1009.76
2016-01-16T20:03:01.049Z,1009.82
2016-01-16T20:04:01.099Z,1009.84
2016-01-16T20:05:01.133Z,1009.83
2016-01-16T20:06:01.182Z,1009.83
2016-01-16T20:07:01.216Z,1009.84
2016-01-16T20:08:01.266Z,1009.85
2016-01-16T20:09:01.315Z,1009.85
2016-01-16T20:10:01.349Z,1009.88
2016-01-16T20:11:01.382Z,1009.86
2016-01-16T20:12:01.432Z,1009.85
2016-01-16T20:13:01.482Z,1009.84
2016-01-16T20:14:01.515Z,1009.85
2016-01-16T20:15:01.565Z,1009.87
2016-01-16T20:16:01.599Z,1009.86
2016-01-16T20:17:01.648Z,1009.87
2016-01-16T20:18:01.681Z,1009.91
2016-01-16T20:19:01.718Z,1009.89
2016-01-16T20:20:01.742Z,1009.87
2016-01-16T20:21:01.780Z,1009.83
2016-01-16T20:22:01.817Z,1009.85
2016-01-16T20:23:01.856Z,1009.85
2016-01-16T20:24:01.887Z,1009.88
2016-01-16T20:25:01.932Z,1009.91
2016-01-16T20:26:01.963Z,1009.9
2016-01-16T20:27:01.993Z,1009.88
2016-01-16T20:28:02.039Z,1009.91
2016-01-16T20:29:02.102Z,1009.88
2016-01-16T20:30:02.181Z,1009.88
2016-01-16T20:31:02.167Z,1009.87
2016-01-16T20:32:02.200Z,1009.9
2016-01-16T20:33:02.264Z,1009.95
2016-01-16T20:34:02.281Z,1009.92
2016-01-16T20:35:02.331Z,1009.91
2016-01-16T20:36:02.380Z,1009.91
2016-01-16T20:37:02.413Z,1009.89
2016-01-16T20:38:02.479Z,1009.86
2016-01-16T20:39:02.512Z,1009.86
2016-01-16T20:40:02.545Z,1009.82
2016-01-16T20:41:02.578Z,1009.84
2016-01-16T20:42:02.627Z,1009.82
2016-01-16T20:43:02.662Z,1009.83
2016-01-16T20:44:02.711Z,1009.82
2016-01-16T20:45:02.746Z,1009.81
2016-01-16T20:46:02.810Z,1009.81
2016-01-16T20:47:02.844Z,1009.8
2016-01-16T20:48:02.893Z,1009.82
2016-01-16T20:49:02.928Z,1009.74
2016-01-16T20:50:02.977Z,1009.76
2016-01-16T20:51:03.012Z,1009.76
2016-01-16T20:52:03.046Z,1009.75
2016-01-16T20:53:03.095Z,1009.74
2016-01-16T20:54:03.129Z,1009.73
2016-01-16T20:55:03.179Z,1009.68
2016-01-16T20:56:03.228Z,1009.67
2016-01-16T20:57:03.278Z,1009.68
2016-01-16T20:58:03.328Z,1009.69
2016-01-16T20:59:03.376Z,1009.64
2016-01-16T21:00:03.411Z,1009.66
2016-01-16T21:01:03.461Z,1009.66
2016-01-16T21:02:03.494Z,1009.65
2016-01-16T21:03:03.528Z,1009.67
2016-01-16T21:04:03.577Z,1009.65
2016-01-16T21:05:03.627Z,1009.66
2016-01-16T21:06:03.661Z,1009.68
2016-01-16T21:07:03.710Z,1009.66
2016-01-16T21:08:03.744Z,1009.66
2016-01-16T21:09:03.778Z,1009.65
2016-01-16T21:10:03.813Z,1009.66
2016-01-16T21:11:03.862Z,1009.62
2016-01-16T21:12:03.911Z,1009.57
2016-01-16T21:13:03.946Z,1009.57
2016-01-16T21:14:03.980Z,1009.56
2016-01-16T21:15:04.044Z,1009.58
2016-01-16T21:16:04.079Z,1009.54
2016-01-16T21:17:04.113Z,1009.52
2016-01-16T21:18:04.177Z,1009.56
2016-01-16T21:19:04.212Z,1009.62
2016-01-16T21:20:04.246Z,1009.59
2016-01-16T21:21:04.279Z,1009.58
2016-01-16T21:22:04.329Z,1009.6
2016-01-16T21:23:04.378Z,1009.56
2016-01-16T21:24:04.412Z,1009.58
2016-01-16T21:25:04.478Z,1009.59
2016-01-16T21:26:04.495Z,1009.57
2016-01-16T21:27:04.545Z,1009.57
2016-01-16T21:28:04.579Z,1009.54
2016-01-16T21:29:04.629Z,1009.53
2016-01-16T21:30:04.678Z,1009.53
2016-01-16T21:31:04.712Z,1009.52
2016-01-16T21:32:04.747Z,1009.51
2016-01-16T21:33:04.797Z,1009.5
2016-01-16T21:34:04.861Z,1009.47
2016-01-16T21:35:04.880Z,1009.49
2016-01-16T21:36:04.930Z,1009.47
2016-01-16T21:37:04.979Z,1009.43
2016-01-16T21:38:05.013Z,1009.45
2016-01-16T21:39:05.047Z,1009.46
2016-01-16T21:40:05.096Z,1009.43
2016-01-16T21:41:05.131Z,1009.49
2016-01-16T21:42:05.180Z,1009.42
2016-01-16T21:43:05.229Z,1009.42
2016-01-16T21:44:05.263Z,1009.44
2016-01-16T21:45:05.313Z,1009.47
2016-01-16T21:46:05.362Z,1009.43
2016-01-16T21:47:05.396Z,1009.42
2016-01-16T21:48:05.446Z,1009.42
2016-01-16T21:49:05.465Z,1009.41
2016-01-16T21:50:05.529Z,1009.44
2016-01-16T21:51:05.563Z,1009.38
2016-01-16T21:52:05.613Z,1009.44
2016-01-16T21:53:05.647Z,1009.43
2016-01-16T21:54:05.696Z,1009.44
2016-01-16T21:55:05.746Z,1009.43
2016-01-16T21:56:05.795Z,1009.42
2016-01-16T21:57:05.814Z,1009.41
2016-01-16T21:58:05.864Z,1009.43
2016-01-16T21:59:05.913Z,1009.35
2016-01-16T22:00:05.948Z,1009.33
2016-01-16T22:01:05.981Z,1009.38
2016-01-16T22:02:06.014Z,1009.36
2016-01-16T22:03:06.081Z,1009.38
2016-01-16T22:04:06.114Z,1009.38
2016-01-16T22:05:06.163Z,1009.4
2016-01-16T22:06:06.214Z,1009.4
2016-01-16T22:07:06.263Z,1009.37
2016-01-16T22:08:06.296Z,1009.41
2016-01-16T22:09:06.314Z,1009.43
2016-01-16T22:10:06.364Z,1009.42
2016-01-16T22:11:06.414Z,1009.44
2016-01-16T22:12:06.447Z,1009.42
2016-01-16T22:13:06.497Z,1009.43
2016-01-16T22:14:06.532Z,1009.42
2016-01-16T22:15:06.580Z,1009.39
2016-01-16T22:16:06.646Z,1009.4
2016-01-16T22:17:06.665Z,1009.39
2016-01-16T22:18:06.714Z,1009.43
2016-01-16T22:19:06.763Z,1009.42
2016-01-16T22:20:06.782Z,1009.4
2016-01-16T22:21:06.832Z,1009.4
2016-01-16T22:22:06.866Z,1009.39
2016-01-16T22:23:06.977Z,1009.37
2016-01-16T22:24:06.980Z,1009.36
2016-01-16T22:25:06.999Z,1009.38
2016-01-16T22:26:07.048Z,1009.37
2016-01-16T22:27:07.145Z,1009.34
2016-01-16T22:28:07.116Z,1009.35
2016-01-16T22:29:07.228Z,1009.35
2016-01-16T22:30:07.197Z,1009.34
2016-01-16T22:31:07.246Z,1009.32
2016-01-16T22:32:07.358Z,1009.32
2016-01-16T22:33:07.331Z,1009.32
2016-01-16T22:34:07.379Z,1009.33
2016-01-16T22:35:07.414Z,1009.32
2016-01-16T22:36:07.448Z,1009.33
2016-01-16T22:37:07.497Z,1009.28
2016-01-16T22:38:07.547Z,1009.29
2016-01-16T22:39:07.581Z,1009.3
2016-01-16T22:40:07.631Z,1009.3
2016-01-16T22:41:07.664Z,1009.32
2016-01-16T22:42:07.713Z,1009.27
2016-01-16T22:43:07.747Z,1009.31
2016-01-16T22:44:07.813Z,1009.36
2016-01-16T22:45:07.831Z,1009.33
2016-01-16T22:46:08.068Z,1009.4
2016-01-16T22:47:07.914Z,1009.35
2016-01-16T22:48:07.949Z,1009.35
2016-01-16T22:49:08.014Z,1009.4
2016-01-16T22:50:08.047Z,1009.43
2016-01-16T22:51:08.082Z,1009.46
2016-01-16T22:52:08.132Z,1009.48
2016-01-16T22:53:08.166Z,1009.48
2016-01-16T22:54:08.216Z,1009.49
2016-01-16T22:55:08.249Z,1009.48
2016-01-16T22:56:08.314Z,1009.47
2016-01-16T22:57:08.363Z,1009.51
2016-01-16T22:58:08.382Z,1009.5
2016-01-16T22:59:08.432Z,1009.5
2016-01-16T23:00:08.465Z,1009.52
2016-01-16T23:01:08.499Z,1009.54
2016-01-16T23:02:08.565Z,1009.51
2016-01-16T23:03:08.588Z,1009.62
2016-01-16T23:04:08.716Z,1009.69
2016-01-16T23:05:08.688Z,1009.63
2016-01-16T23:06:08.722Z,1009.64
2016-01-16T23:07:08.756Z,1009.67
2016-01-16T23:08:08.852Z,1009.61
2016-01-16T23:09:08.839Z,1009.55
2016-01-16T23:10:08.904Z,1009.4
2016-01-16T23:11:08.923Z,1009.35
2016-01-16T23:12:08.956Z,1009.41
2016-01-16T23:13:09.037Z,1009.37
2016-01-16T23:14:09.103Z,1009.37
2016-01-16T23:15:09.090Z,1009.41
2016-01-16T23:16:09.140Z,1009.41
2016-01-16T23:17:09.173Z,1009.32
2016-01-16T23:18:09.224Z,1009.3
2016-01-16T23:19:09.273Z,1009.31
2016-01-16T23:20:09.323Z,1009.36
2016-01-16T23:21:09.388Z,1009.38
2016-01-16T23:22:09.390Z,1009.42
2016-01-16T23:23:09.425Z,1009.47
2016-01-16T23:24:09.490Z,1009.5
2016-01-16T23:25:09.509Z,1009.48
2016-01-16T23:26:09.559Z,1009.54
2016-01-16T23:27:09.607Z,1009.52
2016-01-16T23:28:09.642Z,1009.55
2016-01-16T23:29:09.723Z,1009.53
2016-01-16T23:30:09.726Z,1009.54
2016-01-16T23:31:09.759Z,1009.5
2016-01-16T23:32:09.856Z,1009.53
2016-01-16T23:33:09.920Z,1009.48
2016-01-16T23:34:09.908Z,1009.48
2016-01-16T23:35:09.941Z,1009.46
2016-01-16T23:36:10.006Z,1009.45
2016-01-16T23:37:10.026Z,1009.44
2016-01-16T23:38:10.122Z,1009.49
2016-01-16T23:39:10.093Z,1009.48
2016-01-16T23:40:10.159Z,1009.46
2016-01-16T23:41:10.192Z,1009.44
2016-01-16T23:42:10.289Z,1009.37
2016-01-16T23:43:10.276Z,1009.41
2016-01-16T23:44:10.388Z,1009.42
2016-01-16T23:45:10.357Z,1009.38
2016-01-16T23:46:10.437Z,1009.33
2016-01-16T23:47:10.471Z,1009.37
2016-01-16T23:48:10.475Z,1009.33
2016-01-16T23:49:10.539Z,1009.33
2016-01-16T23:50:10.589Z,1009.28
2016-01-16T23:51:10.607Z,1009.29
2016-01-16T23:52:10.641Z,1009.28
2016-01-16T23:53:10.691Z,1009.3
2016-01-16T23:54:10.740Z,1009.23
2016-01-16T23:55:10.852Z,1009.14
2016-01-16T23:56:10.808Z,1009.12
2016-01-16T23:57:10.874Z,1009.15
2016-01-16T23:58:10.892Z,1009.19
2016-01-16T23:59:10.940Z,1009.2
